Wertheim, Germany

1:25 PM CET on November 28, 2014 (GMT +0100)
Kirschfurt | Change Station
CLOSE
Current Station
Personal Weather Station
Location: Kirschfurt, Bayern
Elevation: 472 ft
Nearby Weather Stations

Elev 472 ft 49.74 °N, 9.32 °E | Updated 4 minutes ago

Overcast
Overcast
39.7 °F
Feels Like 40 °F
N
0.0
Wind Variable Wind from North
Gusts 0.7 mph

Today
High -- | Low -- °F
--% Chance of Precip.
Yesterday
High -- | Low -- °F
Precip. -- in
7:53 AM 4:26 PM
Waxing Crescent, 40% visible
Pressure 29.93 in
Visibility 6.2 miles
Clouds Overcast 900 ft
Windchill 40 °F
Dew Point 32 °F
Humidity 84%
Rainfall -999.00 in
Snow Depth Not available.
UV 0 out of 12
Pollen Not available.
Air Quality Not available.
Flu Activity Not available.
METAR ETIK 281158Z AUTO 08007KT 9999 OVC009 03/03 A2989 RMK AO2 SLP135 T00280028 10028 20023 58002

More Conditions Fewer Conditions

Pressure 29.93 in
Visibility 6.2 miles
Clouds Overcast 900 ft
Windchill 40 °F
Dew Point 32 °F
Humidity 84%
Rainfall -999.00 in
Snow Depth Not available.
UV 0 out of 12
Pollen Not available.
Air Quality Not available.
Flu Activity Not available.
METAR ETIK 281158Z AUTO 08007KT 9999 OVC009 03/03 A2989 RMK AO2 SLP135 T00280028 10028 20023 58002

More Conditions Fewer Conditions

10-Day Weather Forecast

Almanac

Astronomy

Nov. 28, 2014 Rise Set
Actual Time
Civil Twilight
Nautical Twilight
Astronomical Twilight
Moon
Length of Visible Light
Length of Day
Tomorrow will be .
, % of the Moon is Illuminated

Today's Extremes

Country Highs Country Lows

Community

WunderPhotos

Upload Photos

1,774,199 photos uploaded!

WunderBlogs® & News

Nearby

Air Quality

  Air Quality AQ Index Pollutant
Not available.

Snow Depth

Station Depth Elevation

Earthquake Activity

City Distance Mag. Time & Date
Minimum magnitude displayed is 2.5.

Coastal Water Temperatures

Place Temperature

Nearby Weather Stations